createdAt,value
2017-12-26T00:00:16.465Z,33.00
2017-12-26T00:02:51.437Z,43.50
2017-12-26T00:05:25.782Z,38.60
2017-12-26T00:08:00.370Z,38.43
2017-12-26T00:10:34.865Z,42.70
2017-12-26T00:13:09.458Z,40.40
2017-12-26T00:15:43.940Z,33.43
2017-12-26T00:18:18.430Z,39.03
2017-12-26T00:20:52.919Z,38.53
2017-12-26T00:23:27.490Z,35.30
2017-12-26T00:26:01.905Z,39.00
2017-12-26T00:28:36.425Z,38.10
2017-12-26T00:31:10.914Z,41.87
2017-12-26T00:33:45.390Z,41.30
2017-12-26T00:36:19.773Z,37.80
2017-12-26T00:38:54.358Z,40.00
2017-12-26T00:41:28.733Z,38.63
2017-12-26T00:44:03.402Z,33.33
2017-12-26T00:46:37.982Z,36.43
2017-12-26T00:49:12.594Z,35.57
2017-12-26T00:51:47.053Z,34.40
2017-12-26T00:54:21.650Z,31.50
2017-12-26T00:56:56.018Z,28.40
2017-12-26T00:59:30.582Z,28.90
2017-12-26T01:02:05.046Z,27.30
2017-12-26T01:04:39.577Z,31.03
2017-12-26T01:07:14.048Z,28.87
2017-12-26T01:09:48.505Z,28.90
2017-12-26T01:12:23.006Z,27.60
2017-12-26T01:14:57.510Z,28.43
2017-12-26T01:17:31.929Z,31.73
2017-12-26T01:20:06.382Z,31.83
2017-12-26T01:22:40.987Z,28.70
2017-12-26T01:25:15.330Z,32.67
2017-12-26T01:27:49.949Z,30.80
2017-12-26T01:30:24.409Z,32.77
2017-12-26T01:32:59.032Z,30.80
2017-12-26T01:35:33.369Z,30.03
2017-12-26T01:38:07.919Z,33.50
2017-12-26T01:40:42.376Z,34.20
2017-12-26T01:43:16.970Z,30.17
2017-12-26T01:45:51.587Z,30.73
2017-12-26T01:48:25.939Z,30.03
2017-12-26T01:51:00.442Z,30.17
2017-12-26T01:53:34.935Z,34.20
2017-12-26T01:56:09.426Z,31.20
2017-12-26T01:58:43.945Z,27.90
2017-12-26T02:01:18.434Z,30.90
2017-12-26T02:03:53.005Z,31.63
2017-12-26T02:06:27.486Z,30.67
2017-12-26T02:09:01.986Z,30.57
2017-12-26T02:11:36.406Z,29.60
2017-12-26T02:14:11.027Z,31.17
2017-12-26T02:16:45.569Z,29.87
2017-12-26T02:19:20.121Z,33.70
2017-12-26T02:21:54.542Z,31.47
2017-12-26T02:24:29.051Z,30.23
2017-12-26T02:27:03.574Z,31.33
2017-12-26T02:29:38.098Z,29.23
2017-12-26T02:32:12.478Z,30.23
2017-12-26T02:34:46.974Z,29.20
2017-12-26T02:37:21.507Z,31.73
2017-12-26T02:39:55.990Z,31.50
2017-12-26T02:42:30.427Z,33.40
2017-12-26T02:45:04.911Z,36.93
2017-12-26T02:47:39.282Z,35.93
2017-12-26T02:50:13.735Z,33.33
2017-12-26T02:52:48.210Z,32.00
2017-12-26T02:55:22.686Z,32.53
2017-12-26T02:57:57.203Z,29.37
2017-12-26T03:00:31.574Z,27.80
2017-12-26T03:03:06.158Z,29.30
2017-12-26T03:05:40.567Z,29.47
2017-12-26T03:08:15.141Z,31.80
2017-12-26T03:10:49.653Z,28.70
2017-12-26T03:13:24.145Z,29.30
2017-12-26T03:15:58.638Z,31.23
2017-12-26T03:18:33.946Z,31.57
2017-12-26T03:21:09.158Z,29.20
2017-12-26T03:23:43.664Z,32.47
2017-12-26T03:26:18.038Z,28.77
2017-12-26T03:28:52.573Z,30.43
2017-12-26T03:31:26.991Z,31.27
2017-12-26T03:34:01.582Z,31.67
2017-12-26T03:36:36.087Z,33.13
2017-12-26T03:39:10.598Z,28.87
2017-12-26T03:41:45.097Z,27.80
2017-12-26T03:44:19.621Z,32.90
2017-12-26T03:46:53.994Z,31.37
2017-12-26T03:49:28.542Z,32.53
2017-12-26T03:52:03.751Z,37.77
2017-12-26T03:54:38.326Z,39.37
2017-12-26T03:57:12.958Z,39.07
2017-12-26T03:59:47.547Z,40.13
2017-12-26T04:02:21.953Z,40.23
2017-12-26T04:04:56.582Z,36.70
2017-12-26T04:07:31.025Z,42.37
2017-12-26T04:10:05.501Z,43.37
2017-12-26T04:12:40.030Z,44.63
2017-12-26T04:15:14.494Z,45.60
2017-12-26T04:17:49.082Z,44.13
2017-12-26T04:20:23.458Z,46.50
2017-12-26T04:22:58.038Z,48.07
2017-12-26T04:25:32.458Z,43.60
2017-12-26T04:28:06.947Z,43.57
2017-12-26T04:30:41.405Z,44.70
2017-12-26T04:33:16.034Z,44.50
2017-12-26T04:35:50.474Z,45.97
2017-12-26T04:38:25.027Z,47.40
2017-12-26T04:40:59.676Z,50.23
2017-12-26T04:43:34.242Z,46.67
2017-12-26T04:46:08.709Z,49.50
2017-12-26T04:48:43.278Z,51.57
2017-12-26T04:51:17.750Z,51.97
2017-12-26T04:53:52.189Z,50.63
2017-12-26T04:56:26.685Z,49.47
2017-12-26T04:59:01.345Z,47.90
2017-12-26T05:01:35.733Z,52.67
2017-12-26T05:04:10.213Z,50.90
2017-12-26T05:06:44.621Z,52.00
2017-12-26T05:09:19.105Z,48.03
2017-12-26T05:11:53.642Z,52.17
2017-12-26T05:14:28.114Z,49.27
2017-12-26T05:17:02.598Z,54.43
2017-12-26T05:19:37.110Z,51.87
2017-12-26T05:22:11.669Z,52.13
2017-12-26T05:24:46.141Z,51.60
2017-12-26T05:27:20.540Z,52.97
2017-12-26T05:29:55.059Z,51.30
2017-12-26T05:32:30.046Z,56.70
2017-12-26T05:35:04.731Z,50.90
2017-12-26T05:37:39.193Z,52.47
2017-12-26T05:40:13.708Z,54.80
2017-12-26T05:42:48.178Z,50.63
2017-12-26T05:45:22.585Z,49.40
2017-12-26T05:47:57.154Z,48.67
2017-12-26T05:50:31.689Z,53.53
2017-12-26T05:53:06.223Z,50.37
2017-12-26T05:55:40.634Z,50.33
2017-12-26T05:58:15.181Z,52.10
2017-12-26T06:00:49.584Z,50.50
2017-12-26T06:03:24.201Z,47.13
2017-12-26T06:05:58.689Z,45.93
2017-12-26T06:08:33.303Z,48.13
2017-12-26T06:11:07.682Z,45.90
2017-12-26T06:13:42.253Z,44.67
2017-12-26T06:16:16.738Z,45.50
2017-12-26T06:18:51.261Z,44.50
2017-12-26T06:21:25.745Z,46.53
2017-12-26T06:24:00.246Z,46.60
2017-12-26T06:26:34.781Z,44.80
2017-12-26T06:29:09.254Z,41.60
2017-12-26T06:31:43.784Z,44.47
2017-12-26T06:34:18.355Z,48.30
2017-12-26T06:36:52.782Z,44.80
2017-12-26T06:39:27.325Z,42.67
2017-12-26T06:42:01.810Z,38.70
2017-12-26T06:44:36.346Z,46.10
2017-12-26T06:47:10.758Z,40.37
2017-12-26T06:49:45.369Z,44.53
2017-12-26T06:52:19.722Z,43.37
2017-12-26T06:54:54.946Z,46.60
2017-12-26T06:57:29.493Z,43.40
2017-12-26T07:00:03.963Z,49.30
2017-12-26T07:02:38.469Z,43.57
2017-12-26T07:05:12.930Z,42.90
2017-12-26T07:07:47.441Z,45.80
2017-12-26T07:10:21.834Z,45.97
2017-12-26T07:12:56.338Z,46.33
2017-12-26T07:15:30.846Z,43.60
2017-12-26T07:18:05.377Z,45.67
2017-12-26T07:20:45.086Z,46.17
2017-12-26T07:23:19.693Z,45.83
2017-12-26T07:25:54.147Z,41.80
2017-12-26T07:28:28.648Z,45.93
2017-12-26T07:31:03.136Z,43.50
2017-12-26T07:33:37.731Z,43.20
2017-12-26T07:36:12.190Z,48.47
2017-12-26T07:38:46.697Z,46.10
2017-12-26T07:41:21.165Z,44.50
2017-12-26T07:43:55.742Z,45.80
2017-12-26T07:46:30.110Z,45.43
2017-12-26T07:49:04.621Z,38.30
2017-12-26T07:51:39.062Z,45.63
2017-12-26T07:54:13.663Z,46.00
2017-12-26T07:56:48.260Z,44.33
2017-12-26T07:59:22.893Z,39.60
2017-12-26T08:01:57.311Z,50.73
2017-12-26T08:04:32.214Z,42.00
2017-12-26T08:07:06.590Z,45.70
2017-12-26T08:09:41.197Z,40.90
2017-12-26T08:12:15.581Z,43.40
2017-12-26T08:14:50.050Z,45.50
2017-12-26T08:17:24.587Z,44.77
2017-12-26T08:19:59.183Z,45.47
2017-12-26T08:22:33.626Z,46.23
2017-12-26T08:25:07.994Z,46.73
2017-12-26T08:27:42.573Z,45.37
2017-12-26T08:30:17.698Z,42.93
2017-12-26T08:32:52.173Z,45.47
2017-12-26T08:35:26.617Z,42.73
2017-12-26T08:38:01.156Z,42.70
2017-12-26T08:40:35.528Z,46.07
2017-12-26T08:43:09.981Z,49.60
2017-12-26T08:45:44.387Z,42.47
2017-12-26T08:48:18.890Z,42.27
2017-12-26T08:50:53.384Z,40.00
2017-12-26T08:53:27.770Z,39.10
2017-12-26T08:56:02.315Z,40.97
2017-12-26T08:58:36.890Z,46.10
2017-12-26T09:01:11.298Z,44.13
2017-12-26T09:03:45.933Z,45.90
2017-12-26T09:06:20.428Z,42.60
2017-12-26T09:08:54.977Z,45.37
2017-12-26T09:11:29.454Z,41.33
2017-12-26T09:14:04.011Z,43.07
2017-12-26T09:16:38.506Z,43.30
2017-12-26T09:19:13.126Z,44.07
2017-12-26T09:21:47.557Z,45.13
2017-12-26T09:24:22.047Z,45.63
2017-12-26T09:26:56.662Z,49.20
2017-12-26T09:29:31.073Z,49.10
2017-12-26T09:32:05.542Z,47.80
2017-12-26T09:34:40.134Z,44.87
2017-12-26T09:37:14.537Z,48.70
2017-12-26T09:39:49.166Z,50.70
2017-12-26T09:42:23.670Z,44.27
2017-12-26T09:44:58.221Z,47.90
2017-12-26T09:47:32.766Z,46.77
2017-12-26T09:50:07.281Z,45.50
2017-12-26T09:52:41.741Z,46.53
2017-12-26T09:55:16.144Z,43.73
2017-12-26T09:57:50.620Z,44.97
2017-12-26T10:00:25.165Z,44.27
2017-12-26T10:02:59.593Z,44.40
2017-12-26T10:05:33.968Z,43.00
2017-12-26T10:08:08.547Z,43.10
2017-12-26T10:10:42.907Z,44.40
2017-12-26T10:13:17.342Z,43.90
2017-12-26T10:15:51.589Z,46.20
2017-12-26T10:18:26.070Z,47.13
2017-12-26T10:21:00.485Z,58.17
2017-12-26T10:23:35.084Z,45.33
2017-12-26T10:26:09.564Z,42.57
2017-12-26T10:28:44.067Z,38.90
2017-12-26T10:31:18.459Z,41.77
2017-12-26T10:33:53.032Z,45.47
2017-12-26T10:36:27.478Z,45.57
2017-12-26T10:39:02.099Z,42.20
2017-12-26T10:41:36.556Z,52.27
2017-12-26T10:44:11.005Z,50.73
2017-12-26T10:46:45.438Z,45.13
2017-12-26T10:49:19.993Z,48.07
2017-12-26T10:51:54.362Z,48.37
2017-12-26T10:54:28.882Z,46.07
2017-12-26T10:57:03.235Z,45.00
2017-12-26T10:59:37.819Z,43.17
2017-12-26T11:02:12.231Z,45.87
2017-12-26T11:04:46.768Z,46.63
2017-12-26T11:07:21.173Z,46.07
2017-12-26T11:09:55.687Z,43.97
2017-12-26T11:12:30.140Z,47.40
2017-12-26T11:15:04.634Z,44.50
2017-12-26T11:17:39.171Z,45.20
2017-12-26T11:20:13.527Z,41.47
2017-12-26T11:22:48.231Z,46.47
2017-12-26T11:25:23.026Z,46.87
2017-12-26T11:27:57.543Z,42.83
2017-12-26T11:30:32.283Z,42.60
2017-12-26T11:33:06.815Z,42.47
2017-12-26T11:35:41.183Z,42.67
2017-12-26T11:38:15.740Z,43.30
2017-12-26T11:40:50.389Z,43.47
2017-12-26T11:43:24.907Z,43.57
2017-12-26T11:45:59.356Z,40.90
2017-12-26T11:48:34.139Z,43.10
2017-12-26T11:51:08.515Z,43.90
2017-12-26T11:53:43.125Z,43.63
2017-12-26T11:56:17.691Z,43.17
2017-12-26T11:58:52.167Z,42.50
2017-12-26T12:01:26.483Z,37.43
2017-12-26T12:04:00.995Z,42.90
2017-12-26T12:06:35.423Z,37.87
2017-12-26T12:09:10.067Z,42.13
2017-12-26T12:11:44.567Z,39.00
2017-12-26T12:14:19.179Z,40.20
2017-12-26T12:16:53.621Z,37.53
2017-12-26T12:19:28.130Z,41.50
2017-12-26T12:22:02.550Z,42.70
2017-12-26T12:24:37.083Z,38.20
2017-12-26T12:27:11.973Z,40.30
2017-12-26T12:29:46.542Z,41.67
2017-12-26T12:32:20.987Z,39.70
2017-12-26T12:34:55.314Z,38.07
2017-12-26T12:37:29.820Z,39.70
2017-12-26T12:40:04.604Z,43.00
2017-12-26T12:42:39.075Z,41.77
2017-12-26T12:45:13.515Z,39.30
2017-12-26T12:47:48.073Z,41.60
2017-12-26T12:50:22.449Z,41.20
2017-12-26T12:52:57.436Z,39.40
2017-12-26T12:55:32.755Z,35.67
2017-12-26T12:58:07.282Z,41.33
2017-12-26T13:00:41.715Z,41.30
2017-12-26T13:03:16.251Z,36.47
2017-12-26T13:05:50.664Z,42.30
2017-12-26T13:08:25.167Z,38.20
2017-12-26T13:10:59.555Z,40.90
2017-12-26T13:13:34.205Z,36.60
2017-12-26T13:16:08.636Z,37.00
2017-12-26T13:18:43.203Z,37.97
2017-12-26T13:21:17.647Z,37.30
2017-12-26T13:23:52.139Z,37.70
2017-12-26T13:26:26.546Z,37.00
2017-12-26T13:29:01.123Z,38.53
2017-12-26T13:31:35.526Z,38.13
2017-12-26T13:34:10.008Z,38.23
2017-12-26T13:36:44.418Z,38.80
2017-12-26T13:39:18.997Z,35.60
2017-12-26T13:41:53.886Z,38.30
2017-12-26T13:44:28.422Z,41.70
2017-12-26T13:47:02.948Z,37.07
2017-12-26T13:49:37.450Z,37.50
2017-12-26T13:52:11.904Z,38.43
2017-12-26T13:54:46.555Z,37.40
2017-12-26T13:57:21.176Z,38.90
2017-12-26T13:59:55.734Z,39.30
2017-12-26T14:02:30.102Z,39.47
2017-12-26T14:05:04.885Z,39.73
2017-12-26T14:07:39.414Z,40.43
2017-12-26T14:10:14.151Z,37.50
2017-12-26T14:12:48.778Z,37.97
2017-12-26T14:15:23.130Z,40.13
2017-12-26T14:17:57.608Z,41.23
2017-12-26T14:20:32.054Z,38.23
2017-12-26T14:23:07.230Z,37.83
2017-12-26T14:25:41.706Z,36.67
2017-12-26T14:28:16.230Z,41.70
2017-12-26T14:30:51.016Z,37.73
2017-12-26T14:33:25.525Z,38.30
2017-12-26T14:35:59.901Z,38.13
2017-12-26T14:38:34.383Z,35.90
2017-12-26T14:41:08.749Z,37.80
2017-12-26T14:43:43.322Z,36.40
2017-12-26T14:46:18.057Z,39.10
2017-12-26T14:48:52.591Z,38.00
2017-12-26T14:51:27.065Z,37.50
2017-12-26T14:54:01.392Z,35.20
2017-12-26T14:56:35.785Z,39.47
2017-12-26T14:59:10.355Z,40.07
2017-12-26T15:01:44.733Z,39.00
2017-12-26T15:04:19.346Z,40.27
2017-12-26T15:06:53.938Z,40.53
2017-12-26T15:09:28.528Z,40.63
2017-12-26T15:12:02.909Z,42.03
2017-12-26T15:14:37.503Z,41.50
2017-12-26T15:17:11.781Z,39.37
2017-12-26T15:19:46.257Z,41.80
2017-12-26T15:22:20.521Z,40.10
2017-12-26T15:24:54.906Z,41.80
2017-12-26T15:27:29.234Z,42.80
2017-12-26T15:30:03.974Z,41.90
2017-12-26T15:32:38.416Z,41.13
2017-12-26T15:35:12.798Z,44.47
2017-12-26T15:37:47.434Z,41.47
2017-12-26T15:40:21.876Z,40.90
2017-12-26T15:42:56.344Z,41.33
2017-12-26T15:45:30.735Z,43.73
2017-12-26T15:48:05.238Z,42.10
2017-12-26T15:50:39.602Z,44.20
2017-12-26T15:53:14.238Z,44.60
2017-12-26T15:55:48.650Z,44.27
2017-12-26T15:58:23.151Z,43.70
2017-12-26T16:00:57.553Z,43.33
2017-12-26T16:03:32.152Z,42.10
2017-12-26T16:06:06.773Z,43.80
2017-12-26T16:08:41.313Z,43.13
2017-12-26T16:11:15.677Z,42.60
2017-12-26T16:13:50.267Z,42.60
2017-12-26T16:16:24.658Z,43.13
2017-12-26T16:18:59.274Z,42.10
2017-12-26T16:21:33.740Z,41.70
2017-12-26T16:24:08.436Z,42.00
2017-12-26T16:26:42.960Z,43.40
2017-12-26T16:29:17.532Z,45.07
2017-12-26T16:31:51.977Z,43.63
2017-12-26T16:34:26.490Z,41.47
2017-12-26T16:37:00.915Z,41.57
2017-12-26T16:39:35.419Z,40.57
2017-12-26T16:42:09.861Z,40.57
2017-12-26T16:44:44.462Z,41.33
2017-12-26T16:47:18.904Z,40.47
2017-12-26T16:49:53.430Z,45.90
2017-12-26T16:52:27.833Z,43.90
2017-12-26T16:55:02.437Z,44.53
2017-12-26T16:57:36.941Z,44.30
2017-12-26T17:00:11.398Z,43.07
2017-12-26T17:02:46.051Z,38.50
2017-12-26T17:05:20.678Z,42.43
2017-12-26T17:07:55.167Z,42.70
2017-12-26T17:10:29.615Z,38.00
2017-12-26T17:13:04.166Z,37.47
2017-12-26T17:15:38.743Z,39.23
2017-12-26T17:18:13.362Z,40.40
2017-12-26T17:20:47.850Z,38.20
2017-12-26T17:23:22.480Z,39.67
2017-12-26T17:25:57.237Z,41.37
2017-12-26T17:28:31.726Z,39.53
2017-12-26T17:31:06.180Z,42.10
2017-12-26T17:33:40.766Z,42.27
2017-12-26T17:36:15.266Z,40.87
2017-12-26T17:38:49.792Z,38.43
2017-12-26T17:41:24.204Z,39.30
2017-12-26T17:43:58.750Z,43.43
2017-12-26T17:46:32.918Z,38.77
2017-12-26T17:49:07.397Z,35.87
2017-12-26T17:51:41.690Z,41.83
2017-12-26T17:54:16.958Z,39.13
2017-12-26T17:56:51.539Z,42.07
2017-12-26T17:59:25.866Z,41.67
2017-12-26T18:02:00.222Z,40.83
2017-12-26T18:04:34.802Z,43.33
2017-12-26T18:07:09.203Z,41.10
2017-12-26T18:09:43.721Z,40.83
2017-12-26T18:12:18.122Z,45.00
2017-12-26T18:14:52.605Z,40.77
2017-12-26T18:17:27.154Z,40.33
2017-12-26T18:20:01.729Z,41.27
2017-12-26T18:22:36.115Z,43.73
2017-12-26T18:25:10.599Z,46.60
2017-12-26T18:27:45.159Z,40.47
2017-12-26T18:30:19.662Z,44.10
2017-12-26T18:32:54.118Z,41.37
2017-12-26T18:35:28.526Z,38.90
2017-12-26T18:38:03.093Z,39.07
2017-12-26T18:40:37.592Z,39.47
2017-12-26T18:43:12.105Z,41.10
2017-12-26T18:45:46.632Z,40.27
2017-12-26T18:48:21.028Z,41.17
2017-12-26T18:50:56.501Z,38.20
2017-12-26T18:53:30.910Z,39.80
2017-12-26T18:56:05.293Z,43.03
2017-12-26T18:58:39.917Z,42.37
2017-12-26T19:01:14.333Z,39.80
2017-12-26T19:03:48.966Z,40.90
2017-12-26T19:06:23.426Z,43.30
2017-12-26T19:08:57.769Z,42.33
2017-12-26T19:11:33.065Z,43.63
2017-12-26T19:14:09.058Z,43.23
2017-12-26T19:16:43.478Z,45.97
2017-12-26T19:19:18.022Z,43.80
2017-12-26T19:21:52.480Z,45.90
2017-12-26T19:24:26.992Z,40.30
2017-12-26T19:27:01.484Z,39.50
2017-12-26T19:29:36.045Z,41.37
2017-12-26T19:32:10.530Z,39.20
2017-12-26T19:34:45.065Z,38.30
2017-12-26T19:37:19.538Z,39.90
2017-12-26T19:39:54.024Z,39.30
2017-12-26T19:42:28.637Z,39.03
2017-12-26T19:45:03.710Z,36.40
2017-12-26T19:47:38.385Z,28.00
2017-12-26T19:50:12.842Z,26.90
2017-12-26T19:52:47.994Z,31.40
2017-12-26T19:55:22.517Z,34.70
2017-12-26T19:57:56.989Z,33.30
2017-12-26T20:00:31.806Z,33.20
2017-12-26T20:03:06.337Z,32.40
2017-12-26T20:05:40.813Z,30.50
2017-12-26T20:08:15.337Z,31.70
2017-12-26T20:10:49.723Z,31.07
2017-12-26T20:13:24.081Z,29.07
2017-12-26T20:15:58.490Z,31.07
2017-12-26T20:18:33.000Z,28.03
2017-12-26T20:21:07.362Z,27.67
2017-12-26T20:23:41.853Z,31.50
2017-12-26T20:26:16.357Z,30.43
2017-12-26T20:28:56.730Z,29.90
2017-12-26T20:31:31.224Z,30.30
2017-12-26T20:34:05.800Z,33.37
2017-12-26T20:36:40.178Z,28.50
2017-12-26T20:39:14.610Z,32.37
2017-12-26T20:41:49.173Z,23.77
2017-12-26T20:44:23.719Z,27.13
2017-12-26T20:46:58.127Z,26.90
2017-12-26T20:49:32.890Z,28.47
2017-12-26T20:52:07.385Z,25.37
2017-12-26T20:54:41.938Z,27.60
2017-12-26T20:57:16.394Z,28.33
2017-12-26T20:59:50.773Z,25.80
2017-12-26T21:02:26.010Z,27.00
2017-12-26T21:05:00.365Z,29.23
2017-12-26T21:07:34.870Z,25.63
2017-12-26T21:10:09.303Z,26.97
2017-12-26T21:12:43.825Z,26.07
2017-12-26T21:15:18.451Z,26.57
2017-12-26T21:17:52.928Z,26.80
2017-12-26T21:20:27.441Z,25.00
2017-12-26T21:23:02.038Z,25.10
2017-12-26T21:25:36.451Z,22.73
2017-12-26T21:28:10.827Z,23.33
2017-12-26T21:30:45.299Z,23.70
2017-12-26T21:33:19.859Z,25.50
2017-12-26T21:35:54.327Z,23.00
2017-12-26T21:38:28.923Z,25.60
2017-12-26T21:41:03.333Z,25.03
2017-12-26T21:43:37.985Z,26.40
2017-12-26T21:46:12.365Z,26.80
2017-12-26T21:48:46.957Z,25.83
2017-12-26T21:51:21.357Z,28.10
2017-12-26T21:53:55.979Z,27.60
2017-12-26T21:56:30.389Z,26.47
2017-12-26T21:59:04.958Z,30.83
2017-12-26T22:01:39.418Z,32.87
2017-12-26T22:04:14.053Z,34.40
2017-12-26T22:06:48.564Z,32.97
2017-12-26T22:09:22.965Z,32.50
2017-12-26T22:11:57.417Z,31.87
2017-12-26T22:14:31.909Z,35.33
2017-12-26T22:17:06.360Z,35.27
2017-12-26T22:19:40.934Z,32.57
2017-12-26T22:22:15.364Z,32.73
2017-12-26T22:24:49.947Z,38.20
2017-12-26T22:27:24.410Z,34.70
2017-12-26T22:29:58.969Z,34.10
2017-12-26T22:32:33.445Z,33.20
2017-12-26T22:35:07.848Z,34.30
2017-12-26T22:37:42.197Z,33.97
2017-12-26T22:40:16.804Z,38.70
2017-12-26T22:42:51.210Z,34.93
2017-12-26T22:45:25.666Z,41.23
2017-12-26T22:48:00.165Z,39.97
2017-12-26T22:50:34.549Z,37.27
2017-12-26T22:53:09.056Z,41.63
2017-12-26T22:55:43.346Z,42.23
2017-12-26T22:58:17.925Z,39.63
2017-12-26T23:00:52.439Z,37.73
2017-12-26T23:03:27.038Z,36.07
2017-12-26T23:06:01.525Z,40.90
2017-12-26T23:08:36.120Z,38.23
2017-12-26T23:11:10.672Z,39.47
2017-12-26T23:13:45.058Z,39.60
2017-12-26T23:16:24.726Z,37.83
2017-12-26T23:18:59.236Z,34.73
2017-12-26T23:21:33.668Z,39.20
2017-12-26T23:24:13.693Z,31.93
2017-12-26T23:30:02.572Z,36.53
2017-12-26T23:32:42.602Z,36.40
2017-12-26T23:35:22.521Z,40.67
2017-12-26T23:38:02.433Z,40.50
2017-12-26T23:40:42.268Z,38.63
2017-12-26T23:43:22.241Z,36.17
2017-12-26T23:46:02.085Z,39.10
2017-12-26T23:48:41.963Z,37.27
2017-12-26T23:51:21.926Z,39.80
2017-12-26T23:54:01.865Z,39.77
2017-12-26T23:59:46.537Z,44.10
